Time;durP1;ratioP1;P1;durP2;ratioP2;P2;SDS_P1;SDS_P2;PMS_P1;PMS_P2;Temp;Humidity;BMP_temperature;BMP_pressure;BME280_temperature;BME280_humidity;BME280_pressure;Samples;Min_cycle;Max_cycle;Signal;HPM_P1;HPM_P2
2022/12/04 06:00:11;;;;;;;16.13;12.90;;;5.00;97.20;;;;;;1734145;28;20187;-71
2022/12/04 06:01:11;;;;;;;15.23;12.70;;;5.00;97.20;;;;;;1733859;28;20216;-71
2022/12/04 06:02:03;;;;;;;15.90;13.00;;;5.00;97.20;;;;;;1733983;28;20238;-71
2022/12/04 06:02:54;;;;;;;17.75;13.82;;;5.00;97.20;;;;;;1734011;28;20200;-71
2022/12/04 06:03:46;;;;;;;15.53;12.00;;;5.00;97.20;;;;;;1733909;28;20221;-71
2022/12/04 06:04:37;;;;;;;14.32;12.82;;;5.00;97.20;;;;;;1734030;28;20207;-71
2022/12/04 06:05:28;;;;;;;15.00;12.68;;;5.00;97.20;;;;;;1734085;28;20208;-71
2022/12/04 06:06:22;;;;;;;16.38;12.45;;;5.00;97.20;;;;;;1733646;28;20215;-71
2022/12/04 06:07:14;;;;;;;14.60;12.38;;;5.00;97.20;;;;;;1733826;28;20668;-71
2022/12/04 06:08:05;;;;;;;17.75;14.00;;;5.00;97.20;;;;;;1733508;28;20653;-71
2022/12/04 06:08:58;;;;;;;15.53;12.47;;;5.00;97.20;;;;;;1734102;28;20573;-71
2022/12/04 06:09:49;;;;;;;14.43;12.43;;;5.00;97.20;;;;;;1733958;28;20206;-71
2022/12/04 06:10:41;;;;;;;16.00;12.57;;;5.00;97.20;;;;;;1733888;28;20219;-71
2022/12/04 06:11:34;;;;;;;15.32;11.73;;;5.00;97.20;;;;;;1734068;28;20206;-71
2022/12/04 06:12:25;;;;;;;15.88;12.32;;;5.00;97.20;;;;;;1733941;28;20653;-71
2022/12/04 06:13:16;;;;;;;15.30;12.10;;;5.00;97.20;;;;;;1733976;28;20218;-71
2022/12/04 06:14:11;;;;;;;14.90;11.80;;;5.00;97.20;;;;;;1733963;28;20202;-71
2022/12/04 06:15:02;;;;;;;14.63;11.75;;;5.00;97.20;;;;;;1733836;28;20199;-71
2022/12/04 06:15:56;;;;;;;14.85;12.07;;;5.00;97.20;;;;;;1734160;28;20208;-71
2022/12/04 06:16:47;;;;;;;14.25;11.38;;;5.00;97.20;;;;;;1734058;28;20199;-71
2022/12/04 06:17:39;;;;;;;14.00;11.40;;;5.00;97.20;;;;;;1733933;28;20261;-71
2022/12/04 06:18:29;;;;;;;16.67;11.70;;;5.00;97.20;;;;;;1733549;28;20235;-71
2022/12/04 06:19:22;;;;;;;14.30;11.77;;;5.00;97.20;;;;;;1733864;28;20223;-71
2022/12/04 06:20:13;;;;;;;13.45;11.45;;;5.00;97.20;;;;;;1733819;28;20203;-71
2022/12/04 06:21:04;;;;;;;14.48;12.07;;;5.00;97.20;;;;;;1733843;28;20285;-71
2022/12/04 06:21:56;;;;;;;14.87;12.40;;;5.00;97.20;;;;;;1734004;28;20261;-71
2022/12/04 06:22:47;;;;;;;14.80;11.98;;;5.00;97.20;;;;;;1734026;28;20826;-71
2022/12/04 06:23:39;;;;;;;14.27;11.47;;;5.10;97.20;;;;;;1733896;28;20242;-71
2022/12/04 06:24:30;;;;;;;14.65;12.27;;;5.10;97.20;;;;;;1733932;28;20230;-71
2022/12/04 06:25:21;;;;;;;14.40;11.82;;;5.00;97.20;;;;;;1733858;28;20199;-71
2022/12/04 06:26:12;;;;;;;13.02;11.38;;;5.10;97.20;;;;;;1734024;28;20209;-71
2022/12/04 06:27:04;;;;;;;13.80;12.33;;;5.10;97.20;;;;;;1733684;28;20206;-71
2022/12/04 06:27:55;;;;;;;14.65;11.93;;;5.10;97.20;;;;;;1733926;28;20451;-71
2022/12/04 06:28:46;;;;;;;14.10;11.77;;;5.10;97.20;;;;;;1732857;28;20235;-71
2022/12/04 06:29:37;;;;;;;13.02;11.55;;;5.10;97.20;;;;;;1733724;28;20204;-71
2022/12/04 06:30:29;;;;;;;15.23;12.40;;;5.10;97.20;;;;;;1733759;28;20206;-71
2022/12/04 06:31:22;;;;;;;15.48;11.85;;;5.10;97.20;;;;;;1733761;28;20192;-71
2022/12/04 06:32:13;;;;;;;15.98;12.30;;;5.10;97.20;;;;;;1733935;28;20268;-71
2022/12/04 06:33:04;;;;;;;18.20;13.93;;;5.10;97.20;;;;;;1733854;28;20206;-71
2022/12/04 06:33:58;;;;;;;15.40;13.40;;;5.10;97.20;;;;;;1733901;28;20210;-71
2022/12/04 06:34:51;;;;;;;15.07;12.25;;;5.10;97.20;;;;;;1733990;28;20689;-71
2022/12/04 06:35:42;;;;;;;17.35;12.98;;;5.10;97.20;;;;;;1733858;28;20203;-71
2022/12/04 06:36:34;;;;;;;16.33;12.40;;;5.10;97.20;;;;;;1733828;28;20685;-72
2022/12/04 06:37:26;;;;;;;14.73;12.10;;;5.10;97.20;;;;;;1733886;28;20207;-71
2022/12/04 06:38:16;;;;;;;15.10;11.90;;;5.10;97.20;;;;;;1733372;28;20552;-71
2022/12/04 06:39:09;;;;;;;14.63;12.20;;;5.10;97.20;;;;;;1733355;28;20759;-70
2022/12/04 06:40:00;;;;;;;15.05;12.32;;;5.10;97.20;;;;;;1733592;28;20694;-71
2022/12/04 06:40:52;;;;;;;16.40;13.17;;;5.10;97.20;;;;;;1733411;28;20592;-71
2022/12/04 06:41:42;;;;;;;14.73;12.02;;;5.10;97.20;;;;;;1733856;28;20200;-71
2022/12/04 06:42:34;;;;;;;12.87;11.30;;;5.10;97.20;;;;;;1733710;28;20196;-71
2022/12/04 06:43:25;;;;;;;13.68;11.77;;;5.10;97.20;;;;;;1732140;28;20204;-71
2022/12/04 06:44:17;;;;;;;15.10;11.83;;;5.10;97.20;;;;;;1732863;28;20196;-71
2022/12/04 06:45:09;;;;;;;18.40;14.05;;;5.10;97.20;;;;;;1733535;28;20211;-71
2022/12/04 06:46:00;;;;;;;15.88;13.02;;;5.10;97.20;;;;;;1733877;28;20203;-71
2022/12/04 06:46:53;;;;;;;14.98;12.05;;;5.10;97.20;;;;;;1733211;28;20665;-71
2022/12/04 06:47:44;;;;;;;15.13;12.25;;;5.10;97.20;;;;;;1733820;28;20204;-71
2022/12/04 06:48:36;;;;;;;16.23;12.40;;;5.10;97.20;;;;;;1733360;28;20196;-71
2022/12/04 06:49:27;;;;;;;16.42;13.27;;;5.10;97.20;;;;;;1733657;28;20204;-71
2022/12/04 06:50:19;;;;;;;17.13;13.13;;;5.10;97.20;;;;;;1733884;28;20206;-71
2022/12/04 06:51:12;;;;;;;15.52;12.50;;;5.10;97.20;;;;;;1733783;28;20580;-71
2022/12/04 06:52:03;;;;;;;16.08;12.35;;;5.10;97.20;;;;;;1733774;28;20199;-71
2022/12/04 06:52:54;;;;;;;16.50;13.20;;;5.10;97.20;;;;;;1733792;28;20207;-71
2022/12/04 06:53:46;;;;;;;16.07;12.53;;;5.10;97.20;;;;;;1733474;28;20204;-71
2022/12/04 06:54:37;;;;;;;17.15;13.15;;;5.10;97.20;;;;;;1733919;28;20210;-71
2022/12/04 06:55:27;;;;;;;14.30;12.73;;;5.10;97.20;;;;;;1733766;28;20688;-71
2022/12/04 06:56:21;;;;;;;15.33;12.70;;;5.20;97.20;;;;;;1733854;28;20203;-71
2022/12/04 06:57:12;;;;;;;14.80;12.40;;;5.10;97.20;;;;;;1733557;28;20200;-71
2022/12/04 06:58:04;;;;;;;14.83;12.37;;;5.10;97.20;;;;;;1733279;28;20206;-72
2022/12/04 06:58:56;;;;;;;14.05;12.27;;;5.10;97.20;;;;;;1733844;28;20442;-71
2022/12/04 06:59:48;;;;;;;16.85;12.45;;;5.10;97.20;;;;;;1733775;28;20196;-71
2022/12/04 07:00:39;;;;;;;17.45;13.10;;;5.10;97.20;;;;;;1733851;28;20224;-71
2022/12/04 07:01:32;;;;;;;16.10;13.37;;;5.10;97.20;;;;;;1733705;28;20230;-71
2022/12/04 07:02:24;;;;;;;15.93;13.13;;;5.10;97.20;;;;;;1733728;28;20212;-71
2022/12/04 07:03:16;;;;;;;16.55;12.95;;;5.10;97.20;;;;;;1733919;28;20215;-71
2022/12/04 07:04:06;;;;;;;17.45;13.55;;;5.10;97.20;;;;;;1733409;28;20210;-71
2022/12/04 07:04:58;;;;;;;15.10;12.70;;;5.10;97.20;;;;;;1733847;28;20188;-71
2022/12/04 07:05:49;;;;;;;14.77;12.25;;;5.10;97.20;;;;;;1733708;28;20192;-71
2022/12/04 07:06:41;;;;;;;16.90;12.43;;;5.10;97.20;;;;;;1733707;28;20210;-70
2022/12/04 07:07:32;;;;;;;14.15;12.55;;;5.10;97.20;;;;;;1733813;28;20454;-71
2022/12/04 07:08:24;;;;;;;14.33;12.73;;;5.10;97.20;;;;;;1733286;28;20200;-71
2022/12/04 07:09:16;;;;;;;16.42;12.93;;;5.10;97.20;;;;;;1733837;28;20199;-71
2022/12/04 07:10:08;;;;;;;16.30;13.07;;;5.10;97.20;;;;;;1733734;28;20203;-71
2022/12/04 07:11:01;;;;;;;15.73;12.45;;;5.10;97.20;;;;;;1733870;28;20559;-71
2022/12/04 07:11:53;;;;;;;17.50;12.55;;;5.10;97.20;;;;;;1733695;28;20204;-71
2022/12/04 07:12:44;;;;;;;15.68;12.50;;;5.10;97.20;;;;;;1733821;28;20298;-72
2022/12/04 07:13:35;;;;;;;16.10;12.83;;;5.10;97.20;;;;;;1733555;28;20199;-71
2022/12/04 07:14:27;;;;;;;17.27;12.57;;;5.10;97.20;;;;;;1733819;28;20252;-70
2022/12/04 07:15:18;;;;;;;15.65;12.48;;;5.10;97.20;;;;;;1733910;28;20453;-71
2022/12/04 07:16:13;;;;;;;16.00;12.50;;;5.10;97.20;;;;;;1733714;28;20200;-71
2022/12/04 07:17:04;;;;;;;17.58;12.90;;;5.10;97.20;;;;;;1733449;28;20215;-71
2022/12/04 07:17:57;;;;;;;15.10;13.13;;;5.10;97.20;;;;;;1733739;28;20283;-71
2022/12/04 07:18:49;;;;;;;14.38;12.25;;;5.10;97.20;;;;;;1734379;28;20442;-71
2022/12/04 07:19:40;;;;;;;16.40;13.25;;;5.10;97.20;;;;;;1734807;28;20243;-71
2022/12/04 07:20:31;;;;;;;16.80;12.88;;;5.10;97.20;;;;;;1734925;28;20697;-71
2022/12/04 07:21:25;;;;;;;15.80;12.60;;;5.10;97.20;;;;;;1734962;28;20578;-71
2022/12/04 07:22:16;;;;;;;16.35;13.35;;;5.10;97.20;;;;;;1735066;28;20208;-71
2022/12/04 07:23:08;;;;;;;16.60;12.13;;;5.10;97.20;;;;;;1734875;28;20686;-72
2022/12/04 07:24:00;;;;;;;15.75;12.90;;;5.10;97.20;;;;;;1734814;28;20199;-71
2022/12/04 07:24:52;;;;;;;15.68;12.85;;;5.10;97.20;;;;;;1735128;28;20719;-71
2022/12/04 07:25:42;;;;;;;17.40;14.00;;;5.10;97.20;;;;;;1734931;28;20214;-71
2022/12/04 07:26:34;;;;;;;17.10;13.63;;;5.10;97.20;;;;;;1734851;28;20207;-71
2022/12/04 07:27:25;;;;;;;16.25;13.82;;;5.10;97.20;;;;;;1734911;28;20207;-71
2022/12/04 07:28:16;;;;;;;15.93;12.70;;;5.10;97.20;;;;;;1734514;28;20205;-71
2022/12/04 07:29:09;;;;;;;17.45;13.77;;;5.10;97.20;;;;;;1734817;28;20204;-72
2022/12/04 07:30:00;;;;;;;15.65;12.45;;;5.10;97.20;;;;;;1734997;28;20287;-71
2022/12/04 07:30:51;;;;;;;17.50;13.23;;;5.10;97.20;;;;;;1734722;28;20236;-71
2022/12/04 07:31:43;;;;;;;18.23;13.30;;;5.10;97.20;;;;;;1734921;28;20238;-71
2022/12/04 07:32:34;;;;;;;18.33;15.07;;;5.10;97.20;;;;;;1734786;28;20204;-71
2022/12/04 07:33:27;;;;;;;17.70;13.27;;;5.10;97.20;;;;;;1734802;28;20235;-71
2022/12/04 07:34:18;;;;;;;18.15;14.13;;;5.20;97.20;;;;;;1734701;28;20199;-71
2022/12/04 07:35:10;;;;;;;18.23;14.60;;;5.20;97.20;;;;;;1734833;28;20210;-71
2022/12/04 07:36:03;;;;;;;19.58;14.90;;;5.20;97.20;;;;;;1734916;28;20583;-71
2022/12/04 07:36:55;;;;;;;18.85;14.63;;;5.10;97.20;;;;;;1734638;28;20265;-71
2022/12/04 07:37:46;;;;;;;18.88;15.57;;;5.10;97.20;;;;;;1734848;28;20211;-71
2022/12/04 07:38:37;;;;;;;17.10;13.80;;;5.10;97.20;;;;;;1734484;28;20203;-73
2022/12/04 07:39:29;;;;;;;17.02;14.82;;;5.10;97.20;;;;;;1734727;28;20617;-71
2022/12/04 07:40:20;;;;;;;17.13;13.95;;;5.10;97.20;;;;;;1734825;28;20219;-71
2022/12/04 07:41:13;;;;;;;17.63;14.00;;;5.10;97.20;;;;;;1734851;28;20311;-72
2022/12/04 07:42:04;;;;;;;17.90;13.75;;;5.20;97.20;;;;;;1734913;28;20207;-71
2022/12/04 07:42:55;;;;;;;20.63;14.53;;;5.10;97.20;;;;;;1734926;28;20825;-71
2022/12/04 07:43:46;;;;;;;16.80;13.35;;;5.20;97.20;;;;;;1734572;28;20212;-71
2022/12/04 07:44:38;;;;;;;18.95;14.90;;;5.20;97.20;;;;;;1734945;28;20202;-71
2022/12/04 07:45:29;;;;;;;15.48;12.55;;;5.20;97.20;;;;;;1734744;28;20203;-71
2022/12/04 07:46:23;;;;;;;19.50;14.03;;;5.20;97.20;;;;;;1734780;28;20674;-71
2022/12/04 07:47:14;;;;;;;15.32;12.20;;;5.20;97.20;;;;;;1734545;28;20658;-71
2022/12/04 07:48:05;;;;;;;16.73;14.50;;;5.20;97.20;;;;;;1734355;28;20211;-71
2022/12/04 07:48:58;;;;;;;17.02;13.50;;;5.20;97.20;;;;;;1734786;28;20825;-71
2022/12/04 07:49:50;;;;;;;20.13;14.02;;;5.20;97.20;;;;;;1734825;28;20422;-71
2022/12/04 07:50:41;;;;;;;19.25;14.63;;;5.20;97.20;;;;;;1734783;28;20224;-71
2022/12/04 07:51:32;;;;;;;18.30;14.47;;;5.20;97.20;;;;;;1734844;28;20210;-71
2022/12/04 07:52:23;;;;;;;18.30;14.70;;;5.20;97.20;;;;;;1734456;28;20212;-71
2022/12/04 07:53:15;;;;;;;17.57;13.87;;;5.20;97.20;;;;;;1734787;28;20200;-71
2022/12/04 07:54:07;;;;;;;18.33;13.93;;;5.20;97.20;;;;;;1734659;28;20212;-71
2022/12/04 07:54:59;;;;;;;18.05;14.77;;;5.20;97.20;;;;;;1734877;28;20206;-71
2022/12/04 07:55:51;;;;;;;17.98;14.48;;;5.20;97.20;;;;;;1734714;28;20669;-71
2022/12/04 07:56:42;;;;;;;17.27;14.05;;;5.20;97.20;;;;;;1735064;28;20207;-71
2022/12/04 07:57:33;;;;;;;20.02;14.13;;;5.20;97.20;;;;;;1734857;28;20215;-71
2022/12/04 07:58:24;;;;;;;18.73;13.83;;;5.20;97.20;;;;;;1734180;28;20210;-71
2022/12/04 07:59:16;;;;;;;19.42;15.00;;;5.30;97.20;;;;;;1734820;28;20199;-71
2022/12/04 08:00:08;;;;;;;18.90;15.15;;;5.30;97.20;;;;;;1734548;28;20200;-71
2022/12/04 08:01:06;;;;;;;22.65;16.13;;;5.30;97.20;;;;;;1734660;28;20322;-70
2022/12/04 08:01:57;;;;;;;20.27;16.02;;;5.30;97.20;;;;;;1734854;28;20228;-72
2022/12/04 08:02:49;;;;;;;19.70;16.40;;;5.30;97.20;;;;;;1734332;28;20729;-72
2022/12/04 08:03:42;;;;;;;19.83;15.00;;;5.30;97.20;;;;;;1734830;28;20234;-71
2022/12/04 08:04:37;;;;;;;20.65;15.27;;;5.30;97.20;;;;;;1734653;28;20574;-72
2022/12/04 08:05:27;;;;;;;21.20;15.35;;;5.30;97.20;;;;;;1734691;28;20207;-72
2022/12/04 08:06:20;;;;;;;18.50;15.70;;;5.30;97.20;;;;;;1734805;28;20303;-72
2022/12/04 08:07:11;;;;;;;19.02;15.43;;;5.30;97.20;;;;;;1734520;28;20207;-72
2022/12/04 08:08:03;;;;;;;22.73;15.30;;;5.30;97.20;;;;;;1734147;28;20195;-72
2022/12/04 08:08:54;;;;;;;20.40;15.45;;;5.30;97.20;;;;;;1734720;28;20665;-71
2022/12/04 08:09:45;;;;;;;19.07;15.53;;;5.30;97.20;;;;;;1734511;28;20695;-72
2022/12/04 08:10:39;;;;;;;21.52;16.50;;;5.30;97.20;;;;;;1734613;28;20984;-71
2022/12/04 08:11:31;;;;;;;22.88;16.27;;;5.30;97.20;;;;;;1734371;28;20200;-71
2022/12/04 08:12:22;;;;;;;20.95;16.05;;;5.30;97.20;;;;;;1734653;28;20210;-72
2022/12/04 08:13:13;;;;;;;19.50;15.20;;;5.30;97.20;;;;;;1734795;28;20195;-72
2022/12/04 08:14:05;;;;;;;23.92;17.02;;;5.30;97.20;;;;;;1734621;28;20215;-72
2022/12/04 08:14:56;;;;;;;20.67;15.30;;;5.30;97.20;;;;;;1734689;28;20238;-72
2022/12/04 08:15:47;;;;;;;21.42;16.38;;;5.30;97.20;;;;;;1734612;28;20210;-72
2022/12/04 08:16:39;;;;;;;20.50;15.23;;;5.30;97.20;;;;;;1734506;28;20290;-71
2022/12/04 08:17:30;;;;;;;22.83;16.98;;;5.30;97.20;;;;;;1734616;28;20584;-72
2022/12/04 08:18:21;;;;;;;21.07;15.77;;;5.30;97.20;;;;;;1734177;28;20207;-71
2022/12/04 08:19:12;;;;;;;18.15;15.43;;;5.40;97.20;;;;;;1734524;28;20442;-72
2022/12/04 08:20:07;;;;;;;20.43;15.43;;;5.40;97.20;;;;;;1734519;28;20210;-72
2022/12/04 08:21:03;;;;;;;20.48;15.60;;;5.40;97.20;;;;;;1734551;28;20220;-72
2022/12/04 08:21:55;;;;;;;18.98;15.15;;;5.40;97.20;;;;;;1734204;28;20255;-71
2022/12/04 08:22:46;;;;;;;21.02;15.48;;;5.40;97.20;;;;;;1734558;28;20211;-72
2022/12/04 08:23:40;;;;;;;19.58;14.88;;;5.40;97.20;;;;;;1734543;28;20236;-72
2022/12/04 08:24:31;;;;;;;21.25;15.15;;;5.40;97.20;;;;;;1734516;28;20215;-72
2022/12/04 08:25:23;;;;;;;21.43;16.10;;;5.40;97.20;;;;;;1734568;28;20199;-72
2022/12/04 08:26:14;;;;;;;21.52;15.80;;;5.40;97.20;;;;;;1734570;28;20586;-72
2022/12/04 08:27:05;;;;;;;22.83;16.03;;;5.40;97.20;;;;;;1734343;28;20594;-71
2022/12/04 08:27:56;;;;;;;20.20;15.63;;;5.40;97.20;;;;;;1734701;28;20812;-71
2022/12/04 08:28:49;;;;;;;21.37;16.07;;;5.40;97.20;;;;;;1733993;28;20214;-72
2022/12/04 08:29:39;;;;;;;20.90;16.35;;;5.40;97.20;;;;;;1734346;28;20231;-71
2022/12/04 08:30:32;;;;;;;18.80;14.67;;;5.30;97.20;;;;;;1734433;28;20247;-72
2022/12/04 08:31:25;;;;;;;21.85;15.32;;;5.30;97.20;;;;;;1734221;28;20207;-71
2022/12/04 08:32:16;;;;;;;19.77;15.98;;;5.40;97.20;;;;;;1734467;28;20196;-72
2022/12/04 08:33:07;;;;;;;18.08;14.75;;;5.40;97.20;;;;;;1734442;28;20211;-72
2022/12/04 08:34:01;;;;;;;19.70;15.57;;;5.40;97.20;;;;;;1734675;28;20442;-72
2022/12/04 08:34:52;;;;;;;20.52;16.08;;;5.40;97.20;;;;;;1734461;28;20345;-72
2022/12/04 08:35:45;;;;;;;19.97;14.90;;;5.40;97.20;;;;;;1734502;28;20211;-71
2022/12/04 08:36:35;;;;;;;21.63;15.93;;;5.40;97.20;;;;;;1734362;28;20203;-72
2022/12/04 08:37:27;;;;;;;19.80;15.60;;;5.40;97.20;;;;;;1734399;28;20208;-72
2022/12/04 08:38:18;;;;;;;22.85;15.55;;;5.40;97.20;;;;;;1734089;28;20203;-72
2022/12/04 08:39:10;;;;;;;18.67;14.80;;;5.40;97.20;;;;;;1734361;28;20196;-72
2022/12/04 08:40:01;;;;;;;20.25;14.65;;;5.40;97.20;;;;;;1734447;28;20842;-72
2022/12/04 08:40:52;;;;;;;21.00;15.83;;;5.40;97.20;;;;;;1734506;28;20573;-72
2022/12/04 08:41:43;;;;;;;17.45;14.45;;;5.40;97.20;;;;;;1734048;28;20446;-72
2022/12/04 08:42:35;;;;;;;19.00;15.37;;;5.40;97.20;;;;;;1734466;28;20203;-72
2022/12/04 08:43:25;;;;;;;17.75;14.90;;;5.40;97.20;;;;;;1734140;28;20211;-72
2022/12/04 08:44:17;;;;;;;20.27;15.27;;;5.40;97.20;;;;;;1734513;28;20206;-72
2022/12/04 08:45:09;;;;;;;18.23;14.57;;;5.40;97.20;;;;;;1734330;28;20211;-72
2022/12/04 08:46:02;;;;;;;19.10;14.73;;;5.50;97.20;;;;;;1734394;28;20261;-71
2022/12/04 08:46:54;;;;;;;22.23;15.82;;;5.50;97.20;;;;;;1734279;28;20210;-71
2022/12/04 08:47:45;;;;;;;18.00;13.02;;;5.50;97.20;;;;;;1734412;28;20210;-73
2022/12/04 08:48:37;;;;;;;18.60;14.40;;;5.50;97.20;;;;;;1733870;28;20202;-71
2022/12/04 08:49:27;;;;;;;19.77;15.40;;;5.50;97.20;;;;;;1734221;28;20215;-71
2022/12/04 08:50:19;;;;;;;20.80;13.83;;;5.60;97.20;;;;;;1734391;28;20210;-71
2022/12/04 08:51:14;;;;;;;20.77;15.10;;;5.60;97.20;;;;;;1734284;28;20207;-71
2022/12/04 08:52:06;;;;;;;19.00;14.98;;;5.60;97.20;;;;;;1733514;28;20203;-72
2022/12/04 08:52:57;;;;;;;20.73;15.10;;;5.60;97.20;;;;;;1734415;28;20200;-72
2022/12/04 08:53:53;;;;;;;17.52;13.90;;;5.60;97.20;;;;;;1734392;28;20206;-72
2022/12/04 08:54:45;;;;;;;20.85;15.50;;;5.60;97.20;;;;;;1734625;28;20238;-71
2022/12/04 08:55:36;;;;;;;18.63;14.48;;;5.60;97.20;;;;;;1734484;28;20658;-72
2022/12/04 08:56:29;;;;;;;20.07;14.50;;;5.60;97.20;;;;;;1734331;28;20543;-72
2022/12/04 08:57:20;;;;;;;18.80;14.60;;;5.60;97.20;;;;;;1734244;28;20212;-72
2022/12/04 08:58:12;;;;;;;20.17;15.00;;;5.60;97.20;;;;;;1733780;28;20282;-72
2022/12/04 08:59:03;;;;;;;21.33;15.10;;;5.60;97.20;;;;;;1734382;28;20564;-72
2022/12/04 08:59:55;;;;;;;20.90;15.03;;;5.60;97.20;;;;;;1734256;28;20226;-72
2022/12/04 09:00:46;;;;;;;17.50;14.40;;;5.60;97.20;;;;;;1734256;28;20228;-71
2022/12/04 09:01:38;;;;;;;19.17;14.07;;;5.60;97.20;;;;;;1733939;28;20206;-72
2022/12/04 09:02:29;;;;;;;20.20;15.10;;;5.60;97.20;;;;;;1734156;28;20227;-72
2022/12/04 09:03:21;;;;;;;22.93;15.17;;;5.60;97.20;;;;;;1734373;28;20203;-72
2022/12/04 09:04:12;;;;;;;17.42;13.40;;;5.60;97.20;;;;;;1734517;28;20211;-72
2022/12/04 09:05:04;;;;;;;17.40;14.13;;;5.60;97.20;;;;;;1734442;28;20278;-72
2022/12/04 09:05:57;;;;;;;19.08;14.15;;;5.60;97.20;;;;;;1734384;28;20207;-71
2022/12/04 09:06:50;;;;;;;17.25;14.40;;;5.60;97.20;;;;;;1733967;28;20283;-73
2022/12/04 09:07:41;;;;;;;20.13;14.85;;;5.60;97.20;;;;;;1734355;28;20579;-72
2022/12/04 09:08:34;;;;;;;19.63;15.10;;;5.60;97.20;;;;;;1733914;28;20224;-71
2022/12/04 09:09:24;;;;;;;20.17;15.55;;;5.60;97.20;;;;;;1734282;28;20200;-72
2022/12/04 09:10:16;;;;;;;16.53;13.27;;;5.60;97.20;;;;;;1734226;28;20199;-72
2022/12/04 09:11:09;;;;;;;16.65;13.60;;;5.60;97.20;;;;;;1734283;28;20208;-72
2022/12/04 09:12:01;;;;;;;21.35;15.25;;;5.60;97.20;;;;;;1734139;28;20569;-71
2022/12/04 09:12:51;;;;;;;17.77;14.43;;;5.60;97.20;;;;;;1734219;28;20223;-72
2022/12/04 09:13:44;;;;;;;17.90;13.87;;;5.60;97.20;;;;;;1734199;28;20286;-72
2022/12/04 09:14:34;;;;;;;17.33;13.98;;;5.60;97.20;;;;;;1734321;28;20707;-72
2022/12/04 09:15:26;;;;;;;21.87;14.70;;;5.50;97.20;;;;;;1734185;28;20558;-72
2022/12/04 09:16:19;;;;;;;17.38;13.75;;;5.60;97.20;;;;;;1734261;28;20203;-72
2022/12/04 09:17:11;;;;;;;18.88;13.95;;;5.50;97.20;;;;;;1733924;28;20257;-72
2022/12/04 09:18:02;;;;;;;18.17;14.00;;;5.60;97.20;;;;;;1733730;28;20200;-72
2022/12/04 09:18:54;;;;;;;18.77;14.47;;;5.60;97.20;;;;;;1734298;28;20204;-72
2022/12/04 09:19:45;;;;;;;17.92;13.77;;;5.60;97.20;;;;;;1734020;28;20234;-72
2022/12/04 09:20:37;;;;;;;17.90;13.57;;;5.60;97.20;;;;;;1734147;28;20241;-72
2022/12/04 09:21:28;;;;;;;18.85;13.75;;;5.50;97.20;;;;;;1733950;28;20199;-72
2022/12/04 09:22:21;;;;;;;18.97;14.77;;;5.60;97.20;;;;;;1734029;28;20228;-72
2022/12/04 09:23:11;;;;;;;16.80;14.15;;;5.50;97.20;;;;;;1734128;28;20224;-72
2022/12/04 09:24:03;;;;;;;19.33;14.17;;;5.50;97.20;;;;;;1734200;28;20204;-71
2022/12/04 09:24:55;;;;;;;18.52;14.65;;;5.50;97.20;;;;;;1734289;28;20206;-71
2022/12/04 09:25:47;;;;;;;18.88;14.95;;;5.50;97.20;;;;;;1734288;28;20675;-72
2022/12/04 09:26:38;;;;;;;19.27;14.85;;;5.50;97.20;;;;;;1733965;28;20208;-72
2022/12/04 09:27:29;;;;;;;18.87;14.20;;;5.50;97.20;;;;;;1734123;28;20218;-71
2022/12/04 09:28:20;;;;;;;20.02;14.43;;;5.50;97.20;;;;;;1733732;28;20441;-72
2022/12/04 09:29:12;;;;;;;19.73;14.90;;;5.50;97.20;;;;;;1734128;28;20203;-73
2022/12/04 09:30:03;;;;;;;18.30;13.60;;;5.50;97.20;;;;;;1734111;28;20446;-72
2022/12/04 09:31:00;;;;;;;19.52;14.32;;;5.60;97.20;;;;;;1734002;28;20224;-72
2022/12/04 09:31:51;;;;;;;18.77;14.38;;;5.60;97.20;;;;;;1733816;28;20207;-71
2022/12/04 09:32:43;;;;;;;18.73;15.20;;;5.60;97.20;;;;;;1734250;28;20238;-72
2022/12/04 09:33:33;;;;;;;18.25;14.80;;;5.60;97.20;;;;;;1734296;28;20211;-72
2022/12/04 09:34:25;;;;;;;19.70;14.90;;;5.60;97.20;;;;;;1734164;28;20199;-72
2022/12/04 09:35:16;;;;;;;17.80;13.45;;;5.60;97.20;;;;;;1734166;28;20207;-72
2022/12/04 09:36:08;;;;;;;20.10;14.20;;;5.60;97.20;;;;;;1733978;28;20198;-71
2022/12/04 09:36:59;;;;;;;18.17;14.00;;;5.60;97.20;;;;;;1734048;28;20439;-72
2022/12/04 09:37:51;;;;;;;17.45;14.10;;;5.60;97.20;;;;;;1733989;28;20200;-71
2022/12/04 09:38:44;;;;;;;20.92;14.50;;;5.60;97.20;;;;;;1733615;28;20278;-72
2022/12/04 09:39:35;;;;;;;18.48;14.25;;;5.60;97.20;;;;;;1734057;28;20661;-72
2022/12/04 09:40:28;;;;;;;18.15;14.25;;;5.60;97.20;;;;;;1733987;28;20207;-71
2022/12/04 09:41:49;;;;;;;16.58;12.98;;;5.60;97.20;;;;;;1733791;28;20200;-72
2022/12/04 09:42:47;;;;;;;19.05;13.88;;;5.60;97.20;;;;;;1734089;28;20227;-72
2022/12/04 09:43:44;;;;;;;19.52;14.20;;;5.60;97.20;;;;;;1734227;28;20184;-71
2022/12/04 09:44:39;;;;;;;19.23;14.48;;;5.60;97.20;;;;;;1734199;28;20184;-71
2022/12/04 09:45:37;;;;;;;17.63;13.68;;;5.60;97.20;;;;;;1733740;28;20258;-72
2022/12/04 09:46:34;;;;;;;19.27;13.88;;;5.60;97.20;;;;;;1733998;28;20199;-72
2022/12/04 09:47:29;;;;;;;19.65;14.32;;;5.60;97.20;;;;;;1733674;28;20258;-73
2022/12/04 09:48:26;;;;;;;18.27;13.82;;;5.60;97.20;;;;;;1733659;28;20215;-72
2022/12/04 09:49:21;;;;;;;17.13;13.65;;;5.60;97.20;;;;;;1734172;28;20211;-72
2022/12/04 09:50:18;;;;;;;17.63;13.70;;;5.60;97.20;;;;;;1734069;28;20203;-72
2022/12/04 09:51:17;;;;;;;18.42;14.85;;;5.60;97.20;;;;;;1734025;28;20231;-72
2022/12/04 09:52:20;;;;;;;18.60;14.60;;;5.60;97.20;;;;;;1734069;28;20291;-73
2022/12/04 09:53:17;;;;;;;18.30;15.02;;;5.60;97.20;;;;;;1734311;28;20203;-72
2022/12/04 09:54:14;;;;;;;17.00;13.55;;;5.60;97.20;;;;;;1734139;28;20657;-71
2022/12/04 09:55:13;;;;;;;19.13;13.80;;;5.60;97.20;;;;;;1734139;28;20231;-72
2022/12/04 09:56:09;;;;;;;19.27;14.38;;;5.60;97.20;;;;;;1733901;28;20561;-72
2022/12/04 09:57:08;;;;;;;18.52;14.80;;;5.60;97.20;;;;;;1734023;28;20904;-72
2022/12/04 09:58:02;;;;;;;17.33;13.35;;;5.60;97.20;;;;;;1734274;28;20193;-72
2022/12/04 09:58:58;;;;;;;16.48;14.40;;;5.60;97.20;;;;;;1733977;28;20196;-72
2022/12/04 09:59:50;;;;;;;19.30;15.50;;;5.60;97.20;;;;;;1733906;28;20216;-72
2022/12/04 10:00:44;;;;;;;17.27;13.43;;;5.60;97.20;;;;;;1734059;28;20515;-72
2022/12/04 10:01:45;;;;;;;18.83;14.35;;;5.60;97.20;;;;;;1734043;28;20200;-72
2022/12/04 10:02:40;;;;;;;18.15;14.75;;;5.60;97.20;;;;;;1734077;28;20208;-71
2022/12/04 10:03:31;;;;;;;18.23;14.00;;;5.60;97.20;;;;;;1734037;28;20199;-73
2022/12/04 10:04:22;;;;;;;16.37;13.50;;;5.60;97.20;;;;;;1734072;28;20196;-72
2022/12/04 10:05:18;;;;;;;20.58;13.73;;;5.60;97.20;;;;;;1733977;28;20493;-72
2022/12/04 10:06:13;;;;;;;18.85;14.15;;;5.60;97.20;;;;;;1733694;28;20232;-73
2022/12/04 10:07:15;;;;;;;18.38;13.80;;;5.60;97.20;;;;;;1733978;28;20207;-72
2022/12/04 10:08:14;;;;;;;18.02;13.70;;;5.60;97.20;;;;;;1733102;28;20603;-71
2022/12/04 10:09:12;;;;;;;19.90;15.27;;;5.60;97.20;;;;;;1733947;28;20566;-72
2022/12/04 10:10:08;;;;;;;18.35;15.25;;;5.60;97.20;;;;;;1734097;28;20292;-71
2022/12/04 10:11:08;;;;;;;18.40;15.02;;;5.60;97.20;;;;;;1733870;28;20196;-72
2022/12/04 10:12:08;;;;;;;16.70;14.07;;;5.60;97.20;;;;;;1734143;28;20222;-72
2022/12/04 10:13:11;;;;;;;20.13;16.17;;;5.60;97.20;;;;;;1734043;28;20211;-72
2022/12/04 10:14:17;;;;;;;19.60;15.13;;;5.60;97.20;;;;;;1734332;28;20254;-73
2022/12/04 10:15:22;;;;;;;22.38;16.50;;;5.60;97.20;;;;;;1733819;28;20192;-73
2022/12/04 10:16:22;;;;;;;21.02;16.85;;;5.60;97.20;;;;;;1734050;28;20218;-72
2022/12/04 10:17:24;;;;;;;18.48;14.93;;;5.70;97.20;;;;;;1733943;28;20685;-73
2022/12/04 10:18:31;;;;;;;20.73;16.30;;;5.70;97.20;;;;;;1733562;28;20670;-71
2022/12/04 10:19:30;;;;;;;19.45;16.73;;;5.70;97.20;;;;;;1733903;28;20678;-72
2022/12/04 10:20:37;;;;;;;19.13;15.60;;;5.70;97.20;;;;;;1733991;28;20204;-72
2022/12/04 10:21:42;;;;;;;19.02;14.90;;;5.80;97.20;;;;;;1734110;28;20546;-73
2022/12/04 10:22:40;;;;;;;20.33;15.57;;;5.80;97.20;;;;;;1734015;28;20263;-72
2022/12/04 10:23:43;;;;;;;19.77;15.50;;;5.80;97.20;;;;;;1733786;28;20253;-71
2022/12/04 10:24:42;;;;;;;18.80;15.27;;;5.80;97.20;;;;;;1734163;28;20188;-72
2022/12/04 10:25:36;;;;;;;18.27;15.25;;;5.90;97.20;;;;;;1734160;28;20678;-72
2022/12/04 10:26:32;;;;;;;17.75;14.15;;;5.90;97.20;;;;;;1733937;28;20207;-72
2022/12/04 10:27:27;;;;;;;20.13;16.08;;;5.90;97.20;;;;;;1733965;28;20564;-72
2022/12/04 10:28:26;;;;;;;19.58;15.45;;;5.90;97.20;;;;;;1733157;28;20634;-71
2022/12/04 10:29:21;;;;;;;19.73;15.15;;;5.90;97.20;;;;;;1733942;28;20200;-71
2022/12/04 10:30:18;;;;;;;19.20;15.57;;;5.90;97.20;;;;;;1733418;28;20207;-72
2022/12/04 10:31:13;;;;;;;17.25;14.88;;;5.90;97.20;;;;;;1733901;28;20195;-71